createdAt,value
2019-02-07T00:02:03.070Z,4.80
2019-02-07T00:04:50.915Z,4.60
2019-02-07T00:07:38.778Z,4.60
2019-02-07T00:10:26.653Z,4.60
2019-02-07T00:13:16.176Z,4.60
2019-02-07T00:16:04.059Z,4.60
2019-02-07T00:18:51.955Z,4.70
2019-02-07T00:21:39.872Z,4.70
2019-02-07T00:24:27.720Z,4.70
2019-02-07T00:27:15.511Z,4.70
2019-02-07T00:30:24.002Z,4.70
2019-02-07T00:32:52.595Z,4.70
2019-02-07T00:35:40.379Z,4.60
2019-02-07T00:38:29.892Z,4.70
2019-02-07T00:41:17.660Z,4.70
2019-02-07T00:47:00.364Z,4.70
2019-02-07T00:49:48.137Z,4.70
2019-02-07T00:52:36.004Z,4.70
2019-02-07T00:55:16.706Z,4.70
2019-02-07T00:57:57.731Z,4.90
2019-02-07T01:00:38.461Z,4.90
2019-02-07T01:03:18.959Z,5.00
2019-02-07T01:05:59.485Z,5.10
2019-02-07T01:08:40.435Z,5.10
2019-02-07T01:11:21.128Z,5.20
2019-02-07T01:14:02.138Z,5.20
2019-02-07T01:16:42.939Z,5.20
2019-02-07T01:19:23.979Z,5.30
2019-02-07T01:22:04.367Z,5.30
2019-02-07T01:24:45.071Z,5.40
2019-02-07T01:27:25.534Z,5.40
2019-02-07T01:30:06.428Z,5.40
2019-02-07T01:32:46.826Z,5.50
2019-02-07T01:35:30.855Z,5.40
2019-02-07T01:38:11.454Z,5.40
2019-02-07T01:40:52.507Z,5.40
2019-02-07T01:43:33.312Z,5.40
2019-02-07T01:46:14.107Z,5.50
2019-02-07T01:48:55.023Z,5.50
2019-02-07T01:51:35.895Z,5.50
2019-02-07T01:54:16.496Z,5.50
2019-02-07T01:56:57.054Z,5.40
2019-02-07T01:59:37.705Z,5.30
2019-02-07T02:02:18.165Z,5.30
2019-02-07T02:04:59.245Z,5.30
2019-02-07T02:07:40.322Z,5.30
2019-02-07T02:10:20.988Z,5.20
2019-02-07T02:13:01.898Z,4.80
2019-02-07T02:15:42.388Z,5.20
2019-02-07T02:18:22.695Z,5.00
2019-02-07T02:21:03.711Z,5.00
2019-02-07T02:23:44.192Z,5.00
2019-02-07T02:26:24.777Z,5.10
2019-02-07T02:29:05.285Z,5.20
2019-02-07T02:31:45.774Z,5.30
2019-02-07T02:34:27.100Z,5.30
2019-02-07T02:37:07.526Z,5.40
2019-02-07T02:42:31.116Z,5.50
2019-02-07T02:45:11.774Z,5.50
2019-02-07T02:47:52.935Z,5.70
2019-02-07T02:50:33.647Z,5.80
2019-02-07T02:53:02.089Z,5.80
2019-02-07T02:55:43.428Z,5.80
2019-02-07T02:58:23.779Z,5.80
2019-02-07T03:01:24.565Z,5.70
2019-02-07T03:06:50.366Z,5.60
2019-02-07T03:09:34.656Z,5.50
2019-02-07T03:15:14.000Z,5.40
2019-02-07T03:21:07.524Z,5.50
2019-02-07T03:26:50.524Z,5.70
2019-02-07T03:32:33.329Z,5.70
2019-02-07T03:35:33.895Z,5.70
2019-02-07T03:38:33.407Z,5.80
2019-02-07T03:41:33.876Z,5.80
2019-02-07T03:44:16.383Z,5.60
2019-02-07T03:47:16.713Z,5.50
2019-02-07T03:50:17.081Z,5.70
2019-02-07T03:53:16.599Z,5.50
2019-02-07T03:56:17.289Z,5.60
2019-02-07T03:59:16.899Z,5.60
2019-02-07T04:01:59.069Z,5.90
2019-02-07T04:04:59.092Z,5.60
2019-02-07T04:07:41.904Z,5.60
2019-02-07T04:10:24.435Z,5.70
2019-02-07T04:13:07.265Z,5.60
2019-02-07T04:16:14.739Z,5.60
2019-02-07T04:21:47.512Z,5.80
2019-02-07T04:33:19.248Z,5.20
2019-02-07T04:39:26.868Z,5.20
2019-02-07T04:42:26.315Z,5.30
2019-02-07T04:45:08.274Z,5.40
2019-02-07T04:47:50.920Z,5.50
2019-02-07T04:50:33.314Z,5.50
2019-02-07T04:53:33.691Z,5.60
2019-02-07T04:59:17.169Z,5.50
2019-02-07T05:02:17.026Z,5.50
2019-02-07T05:11:01.796Z,5.70
2019-02-07T05:13:44.184Z,5.70
2019-02-07T05:19:10.063Z,5.60
2019-02-07T05:22:10.187Z,5.50
2019-02-07T05:25:10.411Z,5.30
2019-02-07T05:27:55.303Z,5.40
2019-02-07T05:30:40.891Z,5.40
2019-02-07T05:33:21.972Z,5.40
2019-02-07T05:36:04.074Z,5.40
2019-02-07T05:39:03.996Z,5.40
2019-02-07T05:41:48.589Z,5.60
2019-02-07T05:47:16.687Z,5.40
2019-02-07T05:49:59.520Z,5.50
2019-02-07T05:52:42.162Z,5.30
2019-02-07T05:55:24.904Z,5.30
2019-02-07T05:58:10.440Z,5.30
2019-02-07T06:01:10.621Z,5.40
2019-02-07T06:03:55.261Z,5.30
2019-02-07T06:06:38.026Z,5.10
2019-02-07T06:09:20.741Z,5.20
2019-02-07T06:12:21.069Z,5.30
2019-02-07T06:15:06.520Z,5.40
2019-02-07T06:18:06.964Z,5.40
2019-02-07T06:20:49.024Z,5.30
2019-02-07T06:26:13.488Z,5.30
2019-02-07T06:28:57.546Z,5.40
2019-02-07T06:31:37.665Z,5.40
2019-02-07T06:34:29.215Z,5.50
2019-02-07T06:40:32.496Z,5.60
2019-02-07T06:46:31.713Z,5.60
2019-02-07T06:49:38.707Z,5.60
2019-02-07T06:52:45.717Z,5.80
2019-02-07T06:55:28.394Z,5.80
2019-02-07T06:58:11.203Z,6.20
2019-02-07T07:00:53.739Z,5.90
2019-02-07T07:03:39.136Z,6.00
2019-02-07T07:06:38.620Z,6.10
2019-02-07T07:09:37.991Z,6.10
2019-02-07T07:12:22.679Z,6.00
2019-02-07T07:15:05.508Z,6.00
2019-02-07T07:17:50.667Z,6.10
2019-02-07T07:20:35.484Z,6.10
2019-02-07T07:23:36.073Z,6.10
2019-02-07T07:26:21.333Z,6.20
2019-02-07T07:29:06.531Z,6.10
2019-02-07T07:31:48.823Z,6.10
2019-02-07T07:34:34.221Z,6.10
2019-02-07T07:37:34.252Z,6.10
2019-02-07T07:40:33.735Z,6.10
2019-02-07T07:43:16.241Z,6.10
2019-02-07T07:48:59.835Z,6.20
2019-02-07T07:51:42.530Z,6.30
2019-02-07T07:54:42.562Z,6.20
2019-02-07T07:57:24.523Z,6.40
2019-02-07T08:03:14.332Z,6.60
2019-02-07T08:05:56.979Z,6.50
2019-02-07T08:11:35.032Z,6.80
2019-02-07T08:14:17.722Z,6.60
2019-02-07T08:17:02.422Z,6.60
2019-02-07T08:20:01.972Z,6.50
2019-02-07T08:34:36.763Z,6.60
2019-02-07T08:37:36.830Z,6.60
2019-02-07T08:40:21.566Z,6.60
2019-02-07T08:43:06.791Z,6.70
2019-02-07T08:54:44.571Z,6.50
2019-02-07T08:57:26.911Z,6.50
2019-02-07T09:00:12.342Z,6.40
2019-02-07T09:02:57.663Z,6.50
2019-02-07T09:05:42.106Z,6.50
2019-02-07T09:08:30.115Z,6.60
2019-02-07T09:11:37.204Z,6.70
2019-02-07T09:14:44.367Z,6.70
2019-02-07T09:20:59.998Z,6.40
2019-02-07T09:24:07.132Z,6.70
2019-02-07T09:26:56.684Z,6.80
2019-02-07T09:30:03.738Z,6.70
2019-02-07T09:33:10.907Z,6.80
2019-02-07T09:36:18.036Z,6.90
2019-02-07T09:39:26.927Z,7.00
2019-02-07T09:42:34.133Z,6.90
2019-02-07T09:45:41.278Z,7.00
2019-02-07T09:48:30.980Z,7.00
2019-02-07T09:51:38.126Z,7.00
2019-02-07T09:57:53.796Z,6.90
2019-02-07T10:01:00.993Z,7.10
2019-02-07T10:04:09.013Z,6.90
2019-02-07T10:07:23.705Z,6.90
2019-02-07T10:13:39.263Z,6.90
2019-02-07T10:16:46.277Z,7.00
2019-02-07T10:19:53.247Z,7.20
2019-02-07T10:23:00.402Z,6.90
2019-02-07T10:26:07.390Z,6.80
2019-02-07T10:29:14.448Z,6.80
2019-02-07T10:32:24.006Z,6.90
2019-02-07T10:35:31.134Z,6.90
2019-02-07T10:38:38.260Z,6.80
2019-02-07T10:41:45.242Z,6.80
2019-02-07T10:44:52.600Z,6.90
2019-02-07T10:47:59.689Z,6.90
2019-02-07T10:51:06.714Z,6.80
2019-02-07T10:54:13.803Z,6.80
2019-02-07T10:56:59.027Z,6.80
2019-02-07T10:59:41.216Z,6.80
2019-02-07T11:02:41.537Z,6.90
2019-02-07T11:05:41.779Z,7.00
2019-02-07T11:08:42.089Z,7.10
2019-02-07T11:11:26.689Z,7.10
2019-02-07T11:14:09.482Z,7.20
2019-02-07T11:17:09.410Z,7.20
2019-02-07T11:20:09.051Z,7.20
2019-02-07T11:23:09.446Z,7.20
2019-02-07T11:26:09.677Z,7.20
2019-02-07T11:28:51.772Z,7.40
2019-02-07T11:34:41.599Z,7.50
2019-02-07T11:37:26.927Z,7.50
2019-02-07T11:40:09.576Z,7.60
2019-02-07T11:42:54.685Z,7.60
2019-02-07T11:45:42.402Z,7.70
2019-02-07T11:48:49.467Z,7.80
2019-02-07T11:51:56.444Z,7.90
2019-02-07T11:54:56.750Z,8.00
2019-02-07T11:57:41.428Z,8.20
2019-02-07T12:00:26.161Z,8.50
2019-02-07T12:03:25.584Z,8.40
2019-02-07T12:06:08.711Z,8.40
2019-02-07T12:08:50.775Z,8.60
2019-02-07T12:14:28.029Z,8.50
2019-02-07T12:17:10.758Z,8.70
2019-02-07T12:20:10.795Z,8.60
2019-02-07T12:23:10.853Z,8.60
2019-02-07T12:26:10.419Z,8.60
2019-02-07T12:29:10.927Z,8.70
2019-02-07T12:31:53.596Z,8.70
2019-02-07T12:34:38.739Z,8.70
2019-02-07T12:37:23.635Z,8.80
2019-02-07T12:40:23.961Z,8.70
2019-02-07T12:43:24.426Z,8.70
2019-02-07T12:46:27.796Z,8.70
2019-02-07T12:49:10.546Z,8.70
2019-02-07T12:51:53.036Z,8.70
2019-02-07T12:54:38.067Z,8.70
2019-02-07T12:57:20.095Z,8.70
2019-02-07T13:00:20.041Z,8.70
2019-02-07T13:03:20.408Z,8.80
2019-02-07T13:06:20.811Z,8.80
2019-02-07T13:09:06.280Z,8.70
2019-02-07T13:12:09.200Z,8.80
2019-02-07T13:15:08.787Z,8.80
2019-02-07T13:18:09.026Z,9.00
2019-02-07T13:20:51.064Z,8.90
2019-02-07T13:23:36.628Z,9.00
2019-02-07T13:26:22.267Z,9.00
2019-02-07T13:32:29.384Z,9.20
2019-02-07T13:38:36.394Z,9.00
2019-02-07T13:41:17.774Z,9.00
2019-02-07T13:44:17.708Z,9.00
2019-02-07T13:47:02.841Z,9.20
2019-02-07T13:49:52.046Z,9.30
2019-02-07T13:52:54.537Z,9.30
2019-02-07T13:55:42.210Z,9.40
2019-02-07T13:58:49.228Z,9.40
2019-02-07T14:01:56.472Z,9.40
2019-02-07T14:05:03.516Z,9.50
2019-02-07T14:08:10.520Z,9.50
2019-02-07T14:11:18.140Z,9.50
2019-02-07T14:20:32.568Z,9.90
2019-02-07T14:23:39.569Z,9.90
2019-02-07T14:26:46.567Z,10.10
2019-02-07T14:29:34.198Z,10.20
2019-02-07T14:32:21.856Z,10.20
2019-02-07T14:38:38.973Z,10.20
2019-02-07T14:41:46.164Z,10.30
2019-02-07T14:44:53.139Z,10.40
2019-02-07T14:47:41.109Z,10.40
2019-02-07T14:50:28.883Z,10.40
2019-02-07T14:53:16.760Z,9.70
2019-02-07T14:55:57.200Z,10.60
2019-02-07T14:58:38.183Z,10.20
2019-02-07T15:01:18.927Z,10.20
2019-02-07T15:03:59.696Z,10.10
2019-02-07T15:06:40.692Z,9.80
2019-02-07T15:09:21.290Z,9.80
2019-02-07T15:12:02.203Z,9.60
2019-02-07T15:14:43.123Z,9.50
2019-02-07T15:17:24.246Z,9.50
2019-02-07T15:20:05.006Z,9.40
2019-02-07T15:22:45.892Z,9.40
2019-02-07T15:25:26.464Z,9.50
2019-02-07T15:28:07.464Z,9.40
2019-02-07T15:33:30.901Z,9.30
2019-02-07T15:36:11.910Z,9.20
2019-02-07T15:38:52.976Z,9.20
2019-02-07T15:41:33.714Z,9.20
2019-02-07T15:44:14.288Z,9.20
2019-02-07T15:46:54.537Z,9.20
2019-02-07T15:49:35.349Z,9.20
2019-02-07T15:52:17.408Z,9.20
2019-02-07T15:54:58.584Z,9.20
2019-02-07T16:00:22.940Z,9.30
2019-02-07T16:06:00.055Z,9.30
2019-02-07T16:08:48.067Z,9.30
2019-02-07T16:11:37.579Z,9.40
2019-02-07T16:14:25.711Z,9.50
2019-02-07T16:17:13.483Z,9.40
2019-02-07T16:20:01.283Z,9.30
2019-02-07T16:22:49.134Z,9.40
2019-02-07T16:25:36.930Z,9.50
2019-02-07T16:28:24.702Z,9.50
2019-02-07T16:31:12.496Z,9.70
2019-02-07T16:34:00.365Z,9.60
2019-02-07T16:36:50.056Z,9.60
2019-02-07T16:39:37.895Z,9.50
2019-02-07T16:42:25.768Z,9.40
2019-02-07T16:45:32.944Z,9.40
2019-02-07T16:48:20.986Z,9.30
2019-02-07T16:51:08.979Z,9.30
2019-02-07T16:53:56.755Z,9.20
2019-02-07T16:56:37.920Z,9.20
2019-02-07T16:59:18.813Z,9.20
2019-02-07T17:02:00.290Z,9.10
2019-02-07T17:07:23.762Z,9.20
2019-02-07T17:10:05.035Z,9.00
2019-02-07T17:12:45.979Z,8.90
2019-02-07T17:15:26.764Z,8.90
2019-02-07T17:18:07.368Z,8.90
2019-02-07T17:20:47.734Z,8.70
2019-02-07T17:23:28.557Z,8.60
2019-02-07T17:26:09.463Z,8.50
2019-02-07T17:28:49.805Z,8.40
2019-02-07T17:31:30.196Z,8.40
2019-02-07T17:34:11.179Z,8.30
2019-02-07T17:36:51.745Z,8.30
2019-02-07T17:39:32.249Z,8.40
2019-02-07T17:42:16.227Z,8.40
2019-02-07T17:44:57.105Z,8.40
2019-02-07T17:47:38.227Z,8.40
2019-02-07T17:53:02.635Z,8.40
2019-02-07T17:55:43.713Z,8.50
2019-02-07T17:58:24.704Z,8.50
2019-02-07T18:01:06.913Z,8.50
2019-02-07T18:03:47.605Z,8.60
2019-02-07T18:06:28.735Z,8.60
2019-02-07T18:09:09.032Z,8.70
2019-02-07T18:11:49.595Z,8.70
2019-02-07T18:14:30.459Z,8.70
2019-02-07T18:17:10.709Z,8.60
2019-02-07T18:19:51.387Z,8.60
2019-02-07T18:22:32.146Z,8.40
2019-02-07T18:25:13.187Z,8.30
2019-02-07T18:27:54.219Z,8.30
2019-02-07T18:30:34.844Z,8.20
2019-02-07T18:33:15.867Z,8.30
2019-02-07T18:35:57.075Z,8.40
2019-02-07T18:38:38.301Z,8.30
2019-02-07T18:41:19.094Z,8.30
2019-02-07T18:43:59.740Z,8.30
2019-02-07T18:46:41.225Z,8.30
2019-02-07T18:49:21.956Z,8.30
2019-02-07T18:52:02.456Z,8.20
2019-02-07T18:54:43.328Z,8.20
2019-02-07T18:57:24.149Z,8.50
2019-02-07T19:00:04.881Z,8.30
2019-02-07T19:02:45.685Z,8.30
2019-02-07T19:05:26.416Z,8.30
2019-02-07T19:08:07.186Z,8.40
2019-02-07T19:10:47.898Z,8.30
2019-02-07T19:13:28.181Z,8.40
2019-02-07T19:16:08.856Z,8.40
2019-02-07T19:18:49.309Z,8.40
2019-02-07T19:21:30.060Z,8.40
2019-02-07T19:24:10.639Z,8.30
2019-02-07T19:26:51.451Z,8.30
2019-02-07T19:29:32.205Z,8.30
2019-02-07T19:32:13.182Z,8.20
2019-02-07T19:34:53.832Z,7.50
2019-02-07T19:37:34.761Z,8.00
2019-02-07T19:40:15.424Z,8.10
2019-02-07T19:42:56.267Z,8.30
2019-02-07T19:45:37.231Z,8.10
2019-02-07T19:48:17.862Z,8.10
2019-02-07T19:50:58.780Z,8.30
2019-02-07T19:53:39.813Z,8.10
2019-02-07T19:56:20.684Z,8.10
2019-02-07T19:59:01.470Z,8.00
2019-02-07T20:01:42.322Z,8.00
2019-02-07T20:04:22.841Z,7.90
2019-02-07T20:07:03.428Z,7.90
2019-02-07T20:09:44.091Z,8.10
2019-02-07T20:12:24.484Z,8.20
2019-02-07T20:15:05.370Z,7.90
2019-02-07T20:17:46.261Z,7.80
2019-02-07T20:23:10.188Z,7.90
2019-02-07T20:25:51.815Z,8.00
2019-02-07T20:28:32.163Z,8.00
2019-02-07T20:31:12.941Z,7.90
2019-02-07T20:33:41.549Z,8.00
2019-02-07T20:36:29.338Z,8.00
2019-02-07T20:39:17.184Z,7.90
2019-02-07T20:41:45.710Z,7.90
2019-02-07T20:44:35.283Z,7.90
2019-02-07T20:47:23.190Z,7.90
2019-02-07T20:50:31.780Z,8.00
2019-02-07T20:53:19.657Z,8.00
2019-02-07T20:58:43.576Z,8.00
2019-02-07T21:04:06.659Z,8.00
2019-02-07T21:06:47.512Z,7.40
2019-02-07T21:09:28.367Z,7.90
2019-02-07T21:12:09.180Z,7.90
2019-02-07T21:14:49.467Z,7.90
2019-02-07T21:17:30.224Z,8.00
2019-02-07T21:22:53.416Z,8.00
2019-02-07T21:28:16.300Z,8.10
2019-02-07T21:30:57.130Z,8.10
2019-02-07T21:36:23.955Z,8.30
2019-02-07T21:39:04.687Z,8.30
2019-02-07T21:41:45.568Z,8.50
2019-02-07T21:44:26.179Z,8.40
2019-02-07T21:49:49.671Z,8.40
2019-02-07T21:52:30.505Z,8.40
2019-02-07T21:55:11.484Z,8.40
2019-02-07T21:57:52.263Z,8.40
2019-02-07T22:00:33.276Z,8.50
2019-02-07T22:03:13.544Z,8.60
2019-02-07T22:05:54.360Z,8.80
2019-02-07T22:08:35.057Z,8.70
2019-02-07T22:13:59.079Z,8.70
2019-02-07T22:16:40.136Z,8.60
2019-02-07T22:19:21.140Z,8.70
2019-02-07T22:22:02.101Z,8.90
2019-02-07T22:24:42.593Z,8.90
2019-02-07T22:27:23.269Z,8.90
2019-02-07T22:30:03.809Z,8.90
2019-02-07T22:32:44.673Z,8.80
2019-02-07T22:35:13.262Z,8.80
2019-02-07T22:38:01.599Z,8.80
2019-02-07T22:40:49.366Z,8.80
2019-02-07T22:43:37.235Z,8.70
2019-02-07T22:46:24.999Z,8.60
2019-02-07T22:49:14.511Z,8.60
2019-02-07T22:52:02.360Z,8.70
2019-02-07T22:54:50.215Z,8.60
2019-02-07T22:57:31.116Z,8.80
2019-02-07T23:00:11.668Z,8.70
2019-02-07T23:02:52.500Z,8.70
2019-02-07T23:05:33.372Z,8.70
2019-02-07T23:08:14.065Z,8.80
2019-02-07T23:10:55.008Z,8.90
2019-02-07T23:16:18.924Z,8.90
2019-02-07T23:19:00.489Z,8.80
2019-02-07T23:21:41.185Z,8.70
2019-02-07T23:24:22.040Z,8.60
2019-02-07T23:27:02.670Z,8.60
2019-02-07T23:29:43.292Z,8.60
2019-02-07T23:32:23.972Z,8.70
2019-02-07T23:35:04.620Z,8.60
2019-02-07T23:37:45.433Z,8.60
2019-02-07T23:40:26.527Z,8.60
2019-02-07T23:43:07.635Z,8.60
2019-02-07T23:45:48.294Z,8.60
2019-02-07T23:48:29.032Z,8.70
2019-02-07T23:51:09.591Z,8.70
2019-02-07T23:53:50.110Z,8.60
2019-02-07T23:56:30.872Z,8.60
2019-02-07T23:59:11.651Z,8.70
